Terminal Aerodrome Forecast
Issued by NWS Newport/Morehead City, NC

Home | Current Version | Previous Version | Text Only | Print | Product List | Glossary Off
Versions: 1 2 3 4 5 6 7 8 9 10 11 12 13 14 15

000
FTUS42 KMHX 251727
TAFEWN
TAF
KEWN 251727Z 2518/2618 32004KT P6SM BKN250
     FM260000 04007KT P6SM -RA OVC025
     FM260300 03012KT 3SM -SNRA BR OVC005
     FM260700 03012G20KT 4SM -RA BR OVC005
     FM261400 01012KT 5SM BR OVC005=

USA.gov is the U.S. government's official web portal to all federal, state and local government web resources and services.